sensor_id;sensor_type;location;lat;lon;timestamp;P1;durP1;ratioP1;P2;durP2;ratioP2
70675;SDS011;59069;52.242;20.900;2022-09-27T00:00:16;21.03;;;12.20;;
70675;SDS011;59069;52.242;20.900;2022-09-27T00:02:41;22.97;;;12.57;;
70675;SDS011;59069;52.242;20.900;2022-09-27T00:05:07;21.20;;;12.57;;
70675;SDS011;59069;52.242;20.900;2022-09-27T00:07:32;20.33;;;12.60;;
70675;SDS011;59069;52.242;20.900;2022-09-27T00:09:58;25.17;;;12.60;;
70675;SDS011;59069;52.242;20.900;2022-09-27T00:12:23;23.17;;;13.10;;
70675;SDS011;59069;52.242;20.900;2022-09-27T00:14:48;22.77;;;12.93;;
70675;SDS011;59069;52.242;20.900;2022-09-27T00:17:14;22.52;;;13.30;;
70675;SDS011;59069;52.242;20.900;2022-09-27T00:19:39;19.97;;;12.23;;
70675;SDS011;59069;52.242;20.900;2022-09-27T00:22:05;21.43;;;12.27;;
70675;SDS011;59069;52.242;20.900;2022-09-27T00:24:30;21.27;;;12.57;;
70675;SDS011;59069;52.242;20.900;2022-09-27T00:26:55;23.83;;;13.83;;
70675;SDS011;59069;52.242;20.900;2022-09-27T00:29:21;21.35;;;12.90;;
70675;SDS011;59069;52.242;20.900;2022-09-27T00:31:46;22.77;;;13.60;;
70675;SDS011;59069;52.242;20.900;2022-09-27T00:34:15;23.50;;;13.43;;
70675;SDS011;59069;52.242;20.900;2022-09-27T00:36:44;22.83;;;13.82;;
70675;SDS011;59069;52.242;20.900;2022-09-27T00:39:09;25.10;;;14.30;;
70675;SDS011;59069;52.242;20.900;2022-09-27T00:41:35;23.65;;;13.90;;
70675;SDS011;59069;52.242;20.900;2022-09-27T00:44:45;24.58;;;14.73;;
70675;SDS011;59069;52.242;20.900;2022-09-27T00:52:12;27.85;;;15.73;;
70675;SDS011;59069;52.242;20.900;2022-09-27T00:54:43;26.55;;;15.73;;
70675;SDS011;59069;52.242;20.900;2022-09-27T00:57:14;26.35;;;15.13;;
70675;SDS011;59069;52.242;20.900;2022-09-27T00:59:41;27.37;;;16.00;;
70675;SDS011;59069;52.242;20.900;2022-09-27T01:02:11;26.33;;;14.90;;
70675;SDS011;59069;52.242;20.900;2022-09-27T01:04:37;23.73;;;14.75;;
70675;SDS011;59069;52.242;20.900;2022-09-27T01:07:04;25.08;;;14.68;;
70675;SDS011;59069;52.242;20.900;2022-09-27T01:09:30;25.30;;;15.60;;
70675;SDS011;59069;52.242;20.900;2022-09-27T01:12:00;25.77;;;15.27;;
70675;SDS011;59069;52.242;20.900;2022-09-27T01:17:28;25.85;;;13.93;;
70675;SDS011;59069;52.242;20.900;2022-09-27T01:26:03;25.10;;;14.95;;
70675;SDS011;59069;52.242;20.900;2022-09-27T01:28:55;27.90;;;15.85;;
70675;SDS011;59069;52.242;20.900;2022-09-27T01:32:10;26.13;;;15.20;;
70675;SDS011;59069;52.242;20.900;2022-09-27T01:34:42;25.30;;;15.10;;
70675;SDS011;59069;52.242;20.900;2022-09-27T01:37:18;24.43;;;13.97;;
70675;SDS011;59069;52.242;20.900;2022-09-27T01:42:36;24.73;;;14.55;;
70675;SDS011;59069;52.242;20.900;2022-09-27T01:47:56;24.25;;;13.82;;
70675;SDS011;59069;52.242;20.900;2022-09-27T01:50:29;26.77;;;14.47;;
70675;SDS011;59069;52.242;20.900;2022-09-27T01:53:01;23.33;;;13.98;;
70675;SDS011;59069;52.242;20.900;2022-09-27T01:55:30;25.23;;;14.43;;
70675;SDS011;59069;52.242;20.900;2022-09-27T01:58:12;22.13;;;13.18;;
70675;SDS011;59069;52.242;20.900;2022-09-27T02:00:45;27.20;;;15.23;;
70675;SDS011;59069;52.242;20.900;2022-09-27T02:03:13;25.00;;;14.50;;
70675;SDS011;59069;52.242;20.900;2022-09-27T02:05:46;25.50;;;15.13;;
70675;SDS011;59069;52.242;20.900;2022-09-27T02:10:58;26.63;;;15.27;;
70675;SDS011;59069;52.242;20.900;2022-09-27T02:21:31;27.75;;;15.70;;
70675;SDS011;59069;52.242;20.900;2022-09-27T02:24:05;25.92;;;14.65;;
70675;SDS011;59069;52.242;20.900;2022-09-27T02:26:43;25.40;;;15.55;;
70675;SDS011;59069;52.242;20.900;2022-09-27T02:31:47;24.65;;;14.93;;
70675;SDS011;59069;52.242;20.900;2022-09-27T02:34:24;26.80;;;15.15;;
70675;SDS011;59069;52.242;20.900;2022-09-27T02:36:53;26.65;;;15.57;;
70675;SDS011;59069;52.242;20.900;2022-09-27T02:39:19;24.73;;;15.13;;
70675;SDS011;59069;52.242;20.900;2022-09-27T02:41:45;27.00;;;15.73;;
70675;SDS011;59069;52.242;20.900;2022-09-27T02:44:11;26.90;;;14.95;;
70675;SDS011;59069;52.242;20.900;2022-09-27T02:46:45;26.73;;;15.13;;
70675;SDS011;59069;52.242;20.900;2022-09-27T02:54:56;29.38;;;16.35;;
70675;SDS011;59069;52.242;20.900;2022-09-27T03:00:19;29.90;;;16.02;;
70675;SDS011;59069;52.242;20.900;2022-09-27T03:05:33;28.70;;;15.80;;
70675;SDS011;59069;52.242;20.900;2022-09-27T03:08:03;29.02;;;15.68;;
70675;SDS011;59069;52.242;20.900;2022-09-27T03:10:29;30.23;;;15.48;;
70675;SDS011;59069;52.242;20.900;2022-09-27T03:12:54;29.77;;;15.87;;
70675;SDS011;59069;52.242;20.900;2022-09-27T03:15:21;31.02;;;16.27;;
70675;SDS011;59069;52.242;20.900;2022-09-27T03:17:46;30.70;;;16.20;;
70675;SDS011;59069;52.242;20.900;2022-09-27T03:20:12;30.27;;;16.67;;
70675;SDS011;59069;52.242;20.900;2022-09-27T03:22:37;33.38;;;16.75;;
70675;SDS011;59069;52.242;20.900;2022-09-27T03:25:05;30.07;;;16.43;;
70675;SDS011;59069;52.242;20.900;2022-09-27T03:27:31;31.10;;;17.00;;
70675;SDS011;59069;52.242;20.900;2022-09-27T03:29:57;30.13;;;15.60;;
70675;SDS011;59069;52.242;20.900;2022-09-27T03:32:23;32.10;;;16.00;;
70675;SDS011;59069;52.242;20.900;2022-09-27T03:34:49;30.95;;;15.70;;
70675;SDS011;59069;52.242;20.900;2022-09-27T03:37:15;30.23;;;16.67;;
70675;SDS011;59069;52.242;20.900;2022-09-27T03:39:40;31.67;;;15.63;;
70675;SDS011;59069;52.242;20.900;2022-09-27T03:42:06;28.03;;;14.57;;
70675;SDS011;59069;52.242;20.900;2022-09-27T03:44:31;34.63;;;16.27;;
70675;SDS011;59069;52.242;20.900;2022-09-27T03:46:57;34.20;;;15.80;;
70675;SDS011;59069;52.242;20.900;2022-09-27T03:49:23;32.25;;;15.52;;
70675;SDS011;59069;52.242;20.900;2022-09-27T03:51:48;35.87;;;18.00;;
70675;SDS011;59069;52.242;20.900;2022-09-27T03:54:14;30.93;;;15.57;;
70675;SDS011;59069;52.242;20.900;2022-09-27T03:56:39;31.85;;;15.95;;
70675;SDS011;59069;52.242;20.900;2022-09-27T03:59:05;30.43;;;15.70;;
70675;SDS011;59069;52.242;20.900;2022-09-27T04:01:30;35.90;;;17.73;;
70675;SDS011;59069;52.242;20.900;2022-09-27T04:03:56;34.50;;;17.23;;
70675;SDS011;59069;52.242;20.900;2022-09-27T04:06:21;33.10;;;16.27;;
70675;SDS011;59069;52.242;20.900;2022-09-27T04:08:47;35.60;;;15.67;;
70675;SDS011;59069;52.242;20.900;2022-09-27T04:11:13;35.30;;;17.05;;
70675;SDS011;59069;52.242;20.900;2022-09-27T04:13:42;33.30;;;15.45;;
70675;SDS011;59069;52.242;20.900;2022-09-27T04:16:08;31.95;;;14.07;;
70675;SDS011;59069;52.242;20.900;2022-09-27T04:18:34;31.23;;;15.47;;
70675;SDS011;59069;52.242;20.900;2022-09-27T04:20:59;32.58;;;16.35;;
70675;SDS011;59069;52.242;20.900;2022-09-27T04:23:24;36.33;;;16.10;;
70675;SDS011;59069;52.242;20.900;2022-09-27T04:25:50;35.37;;;15.83;;
70675;SDS011;59069;52.242;20.900;2022-09-27T04:28:15;38.07;;;16.17;;
70675;SDS011;59069;52.242;20.900;2022-09-27T04:30:41;38.85;;;16.75;;
70675;SDS011;59069;52.242;20.900;2022-09-27T04:33:06;34.10;;;16.13;;
70675;SDS011;59069;52.242;20.900;2022-09-27T04:35:32;35.97;;;17.27;;
70675;SDS011;59069;52.242;20.900;2022-09-27T04:38:15;33.20;;;15.05;;
70675;SDS011;59069;52.242;20.900;2022-09-27T04:40:43;33.13;;;15.30;;
70675;SDS011;59069;52.242;20.900;2022-09-27T04:43:09;32.53;;;15.93;;
70675;SDS011;59069;52.242;20.900;2022-09-27T04:45:34;33.00;;;15.30;;
70675;SDS011;59069;52.242;20.900;2022-09-27T04:47:59;38.03;;;15.97;;
70675;SDS011;59069;52.242;20.900;2022-09-27T04:50:25;35.00;;;14.90;;
70675;SDS011;59069;52.242;20.900;2022-09-27T04:52:51;33.60;;;15.47;;
70675;SDS011;59069;52.242;20.900;2022-09-27T04:55:17;34.67;;;15.07;;
70675;SDS011;59069;52.242;20.900;2022-09-27T04:57:44;38.60;;;16.77;;
70675;SDS011;59069;52.242;20.900;2022-09-27T05:00:10;34.27;;;15.23;;
70675;SDS011;59069;52.242;20.900;2022-09-27T05:02:35;31.65;;;14.45;;
70675;SDS011;59069;52.242;20.900;2022-09-27T05:05:01;31.00;;;14.80;;
70675;SDS011;59069;52.242;20.900;2022-09-27T05:07:26;35.90;;;16.17;;
70675;SDS011;59069;52.242;20.900;2022-09-27T05:09:52;39.35;;;16.88;;
70675;SDS011;59069;52.242;20.900;2022-09-27T05:12:18;38.40;;;16.85;;
70675;SDS011;59069;52.242;20.900;2022-09-27T05:14:44;37.80;;;16.30;;
70675;SDS011;59069;52.242;20.900;2022-09-27T05:17:09;37.73;;;16.97;;
70675;SDS011;59069;52.242;20.900;2022-09-27T05:19:35;36.43;;;15.93;;
70675;SDS011;59069;52.242;20.900;2022-09-27T05:22:02;33.63;;;15.95;;
70675;SDS011;59069;52.242;20.900;2022-09-27T05:24:27;38.27;;;15.63;;
70675;SDS011;59069;52.242;20.900;2022-09-27T05:26:53;36.27;;;16.17;;
70675;SDS011;59069;52.242;20.900;2022-09-27T05:29:19;39.38;;;17.00;;
70675;SDS011;59069;52.242;20.900;2022-09-27T05:31:44;40.33;;;18.20;;
70675;SDS011;59069;52.242;20.900;2022-09-27T05:34:11;41.83;;;18.67;;
70675;SDS011;59069;52.242;20.900;2022-09-27T05:36:36;41.33;;;17.33;;
70675;SDS011;59069;52.242;20.900;2022-09-27T05:39:02;45.47;;;18.83;;
70675;SDS011;59069;52.242;20.900;2022-09-27T05:41:28;47.97;;;19.48;;
70675;SDS011;59069;52.242;20.900;2022-09-27T05:43:56;48.90;;;19.63;;
70675;SDS011;59069;52.242;20.900;2022-09-27T05:46:22;46.20;;;20.58;;
70675;SDS011;59069;52.242;20.900;2022-09-27T05:48:47;47.63;;;21.43;;
70675;SDS011;59069;52.242;20.900;2022-09-27T05:51:13;46.30;;;20.20;;
70675;SDS011;59069;52.242;20.900;2022-09-27T05:53:38;57.92;;;20.20;;
70675;SDS011;59069;52.242;20.900;2022-09-27T05:56:04;48.37;;;21.33;;
70675;SDS011;59069;52.242;20.900;2022-09-27T05:58:29;49.05;;;20.90;;
70675;SDS011;59069;52.242;20.900;2022-09-27T06:00:55;52.17;;;21.83;;
70675;SDS011;59069;52.242;20.900;2022-09-27T06:03:20;56.20;;;22.43;;
70675;SDS011;59069;52.242;20.900;2022-09-27T06:05:46;45.00;;;21.00;;
70675;SDS011;59069;52.242;20.900;2022-09-27T06:08:12;49.28;;;20.85;;
70675;SDS011;59069;52.242;20.900;2022-09-27T06:10:38;48.72;;;21.80;;
70675;SDS011;59069;52.242;20.900;2022-09-27T06:13:06;45.10;;;20.45;;
70675;SDS011;59069;52.242;20.900;2022-09-27T06:15:36;46.70;;;21.15;;
70675;SDS011;59069;52.242;20.900;2022-09-27T06:18:07;56.23;;;24.93;;
70675;SDS011;59069;52.242;20.900;2022-09-27T06:20:37;69.05;;;35.15;;
70675;SDS011;59069;52.242;20.900;2022-09-27T06:23:04;49.90;;;21.98;;
70675;SDS011;59069;52.242;20.900;2022-09-27T06:25:31;48.67;;;20.40;;
70675;SDS011;59069;52.242;20.900;2022-09-27T06:27:57;45.37;;;20.00;;
70675;SDS011;59069;52.242;20.900;2022-09-27T06:30:22;50.10;;;21.27;;
70675;SDS011;59069;52.242;20.900;2022-09-27T06:32:48;44.40;;;19.80;;
70675;SDS011;59069;52.242;20.900;2022-09-27T06:35:20;47.63;;;21.35;;
70675;SDS011;59069;52.242;20.900;2022-09-27T06:37:49;51.67;;;23.08;;
70675;SDS011;59069;52.242;20.900;2022-09-27T06:40:15;108.17;;;62.10;;
70675;SDS011;59069;52.242;20.900;2022-09-27T06:42:40;50.87;;;25.97;;
70675;SDS011;59069;52.242;20.900;2022-09-27T06:45:06;46.40;;;20.13;;
70675;SDS011;59069;52.242;20.900;2022-09-27T06:47:35;47.73;;;20.97;;
70675;SDS011;59069;52.242;20.900;2022-09-27T06:50:01;40.67;;;18.58;;
70675;SDS011;59069;52.242;20.900;2022-09-27T06:52:33;39.95;;;18.95;;
70675;SDS011;59069;52.242;20.900;2022-09-27T06:54:59;41.45;;;18.95;;
70675;SDS011;59069;52.242;20.900;2022-09-27T06:57:25;44.67;;;19.53;;
70675;SDS011;59069;52.242;20.900;2022-09-27T07:00:10;42.17;;;19.08;;
70675;SDS011;59069;52.242;20.900;2022-09-27T07:02:51;40.55;;;18.42;;
70675;SDS011;59069;52.242;20.900;2022-09-27T07:05:18;42.72;;;17.67;;
70675;SDS011;59069;52.242;20.900;2022-09-27T07:07:44;41.55;;;17.92;;
70675;SDS011;59069;52.242;20.900;2022-09-27T07:10:12;36.60;;;16.00;;
70675;SDS011;59069;52.242;20.900;2022-09-27T07:12:38;40.47;;;16.40;;
70675;SDS011;59069;52.242;20.900;2022-09-27T07:15:04;34.33;;;15.80;;
70675;SDS011;59069;52.242;20.900;2022-09-27T07:17:30;33.00;;;15.10;;
70675;SDS011;59069;52.242;20.900;2022-09-27T07:19:55;29.43;;;14.10;;
70675;SDS011;59069;52.242;20.900;2022-09-27T07:22:21;29.30;;;13.40;;
70675;SDS011;59069;52.242;20.900;2022-09-27T07:24:47;26.93;;;13.40;;
70675;SDS011;59069;52.242;20.900;2022-09-27T07:27:12;29.57;;;13.07;;
70675;SDS011;59069;52.242;20.900;2022-09-27T07:29:39;26.10;;;12.30;;
70675;SDS011;59069;52.242;20.900;2022-09-27T07:32:04;30.73;;;13.38;;
70675;SDS011;59069;52.242;20.900;2022-09-27T07:34:31;29.03;;;13.60;;
70675;SDS011;59069;52.242;20.900;2022-09-27T07:37:01;29.65;;;13.98;;
70675;SDS011;59069;52.242;20.900;2022-09-27T07:39:29;30.02;;;13.88;;
70675;SDS011;59069;52.242;20.900;2022-09-27T07:41:55;31.07;;;14.00;;
70675;SDS011;59069;52.242;20.900;2022-09-27T07:44:20;33.87;;;14.93;;
70675;SDS011;59069;52.242;20.900;2022-09-27T07:46:46;33.30;;;14.63;;
70675;SDS011;59069;52.242;20.900;2022-09-27T07:49:11;30.47;;;14.37;;
70675;SDS011;59069;52.242;20.900;2022-09-27T07:51:37;33.40;;;14.20;;
70675;SDS011;59069;52.242;20.900;2022-09-27T07:54:02;27.13;;;13.30;;
70675;SDS011;59069;52.242;20.900;2022-09-27T07:56:28;34.40;;;15.60;;
70675;SDS011;59069;52.242;20.900;2022-09-27T07:58:53;32.10;;;14.95;;
70675;SDS011;59069;52.242;20.900;2022-09-27T08:01:19;30.73;;;15.00;;
70675;SDS011;59069;52.242;20.900;2022-09-27T08:03:45;30.77;;;14.33;;
70675;SDS011;59069;52.242;20.900;2022-09-27T08:06:10;33.63;;;14.68;;
70675;SDS011;59069;52.242;20.900;2022-09-27T08:08:36;59.97;;;21.73;;
70675;SDS011;59069;52.242;20.900;2022-09-27T08:11:09;28.50;;;14.30;;
70675;SDS011;59069;52.242;20.900;2022-09-27T08:13:40;27.58;;;13.10;;
70675;SDS011;59069;52.242;20.900;2022-09-27T08:16:06;26.90;;;13.57;;
70675;SDS011;59069;52.242;20.900;2022-09-27T08:18:31;26.67;;;13.85;;
70675;SDS011;59069;52.242;20.900;2022-09-27T08:20:57;29.97;;;14.60;;
70675;SDS011;59069;52.242;20.900;2022-09-27T08:23:24;32.15;;;14.20;;
70675;SDS011;59069;52.242;20.900;2022-09-27T08:25:50;35.77;;;14.53;;
70675;SDS011;59069;52.242;20.900;2022-09-27T08:28:17;30.75;;;14.25;;
70675;SDS011;59069;52.242;20.900;2022-09-27T08:30:42;29.63;;;14.40;;
70675;SDS011;59069;52.242;20.900;2022-09-27T08:33:08;30.53;;;14.77;;
70675;SDS011;59069;52.242;20.900;2022-09-27T08:35:33;33.60;;;14.67;;
70675;SDS011;59069;52.242;20.900;2022-09-27T08:37:59;30.17;;;14.73;;
70675;SDS011;59069;52.242;20.900;2022-09-27T08:40:35;28.70;;;14.77;;
70675;SDS011;59069;52.242;20.900;2022-09-27T08:48:43;31.77;;;13.95;;
70675;SDS011;59069;52.242;20.900;2022-09-27T08:51:14;27.47;;;12.73;;
70675;SDS011;59069;52.242;20.900;2022-09-27T08:53:42;28.27;;;12.85;;
70675;SDS011;59069;52.242;20.900;2022-09-27T08:56:15;27.40;;;13.05;;
70675;SDS011;59069;52.242;20.900;2022-09-27T08:59:03;27.52;;;13.05;;
70675;SDS011;59069;52.242;20.900;2022-09-27T09:01:51;28.63;;;13.90;;
70675;SDS011;59069;52.242;20.900;2022-09-27T09:04:24;26.43;;;12.97;;
70675;SDS011;59069;52.242;20.900;2022-09-27T09:14:57;27.13;;;13.10;;
70675;SDS011;59069;52.242;20.900;2022-09-27T10:44:25;29.05;;;14.55;;
70675;SDS011;59069;52.242;20.900;2022-09-27T10:46:53;30.65;;;15.30;;
70675;SDS011;59069;52.242;20.900;2022-09-27T10:49:28;27.08;;;14.77;;
70675;SDS011;59069;52.242;20.900;2022-09-27T10:51:57;28.37;;;15.27;;
70675;SDS011;59069;52.242;20.900;2022-09-27T10:54:29;30.63;;;16.42;;
70675;SDS011;59069;52.242;20.900;2022-09-27T10:57:01;32.00;;;16.73;;
70675;SDS011;59069;52.242;20.900;2022-09-27T10:59:29;29.88;;;17.13;;
70675;SDS011;59069;52.242;20.900;2022-09-27T11:01:58;31.23;;;16.60;;
70675;SDS011;59069;52.242;20.900;2022-09-27T11:04:31;30.77;;;15.87;;
70675;SDS011;59069;52.242;20.900;2022-09-27T11:07:19;33.30;;;17.60;;
70675;SDS011;59069;52.242;20.900;2022-09-27T11:09:52;26.35;;;14.85;;
70675;SDS011;59069;52.242;20.900;2022-09-27T11:12:20;27.73;;;17.17;;
70675;SDS011;59069;52.242;20.900;2022-09-27T11:15:20;26.97;;;15.50;;
70675;SDS011;59069;52.242;20.900;2022-09-27T11:30:57;27.95;;;15.70;;
70675;SDS011;59069;52.242;20.900;2022-09-27T11:33:35;28.13;;;14.70;;
70675;SDS011;59069;52.242;20.900;2022-09-27T11:44:35;22.35;;;13.32;;
70675;SDS011;59069;52.242;20.900;2022-09-27T11:53:17;27.63;;;15.80;;
70675;SDS011;59069;52.242;20.900;2022-09-27T11:58:59;25.63;;;15.00;;
70675;SDS011;59069;52.242;20.900;2022-09-27T12:01:39;23.50;;;13.47;;
70675;SDS011;59069;52.242;20.900;2022-09-27T12:06:55;24.13;;;13.83;;
70675;SDS011;59069;52.242;20.900;2022-09-27T12:09:33;21.77;;;13.85;;
70675;SDS011;59069;52.242;20.900;2022-09-27T12:12:03;24.33;;;13.85;;
70675;SDS011;59069;52.242;20.900;2022-09-27T12:14:39;23.38;;;15.00;;
70675;SDS011;59069;52.242;20.900;2022-09-27T12:17:14;24.65;;;15.20;;
70675;SDS011;59069;52.242;20.900;2022-09-27T12:19:45;22.40;;;13.93;;
70675;SDS011;59069;52.242;20.900;2022-09-27T12:22:15;22.38;;;14.23;;
70675;SDS011;59069;52.242;20.900;2022-09-27T12:24:45;20.48;;;12.52;;
70675;SDS011;59069;52.242;20.900;2022-09-27T12:27:15;20.50;;;12.37;;
70675;SDS011;59069;52.242;20.900;2022-09-27T12:29:59;21.35;;;12.80;;
70675;SDS011;59069;52.242;20.900;2022-09-27T12:32:36;19.08;;;12.07;;
70675;SDS011;59069;52.242;20.900;2022-09-27T12:37:45;23.03;;;12.87;;
70675;SDS011;59069;52.242;20.900;2022-09-27T12:40:16;17.95;;;12.00;;
70675;SDS011;59069;52.242;20.900;2022-09-27T12:42:56;19.70;;;12.30;;
70675;SDS011;59069;52.242;20.900;2022-09-27T12:48:31;28.05;;;13.85;;
70675;SDS011;59069;52.242;20.900;2022-09-27T12:53:37;20.30;;;12.30;;
70675;SDS011;59069;52.242;20.900;2022-09-27T13:01:26;20.75;;;12.77;;
70675;SDS011;59069;52.242;20.900;2022-09-27T13:07:04;18.05;;;11.98;;
70675;SDS011;59069;52.242;20.900;2022-09-27T13:12:19;18.65;;;11.85;;
70675;SDS011;59069;52.242;20.900;2022-09-27T13:30:57;15.20;;;9.37;;
70675;SDS011;59069;52.242;20.900;2022-09-27T13:46:32;14.73;;;8.77;;
70675;SDS011;59069;52.242;20.900;2022-09-27T13:49:35;14.07;;;8.65;;
70675;SDS011;59069;52.242;20.900;2022-09-27T13:55:01;13.20;;;8.73;;
70675;SDS011;59069;52.242;20.900;2022-09-27T13:57:42;13.45;;;8.80;;
70675;SDS011;59069;52.242;20.900;2022-09-27T14:00:21;12.63;;;8.82;;
70675;SDS011;59069;52.242;20.900;2022-09-27T14:02:59;13.15;;;8.07;;
70675;SDS011;59069;52.242;20.900;2022-09-27T14:05:38;11.65;;;8.18;;
70675;SDS011;59069;52.242;20.900;2022-09-27T14:08:05;12.33;;;8.20;;
70675;SDS011;59069;52.242;20.900;2022-09-27T14:10:38;12.05;;;7.38;;
70675;SDS011;59069;52.242;20.900;2022-09-27T14:13:07;11.90;;;7.65;;
70675;SDS011;59069;52.242;20.900;2022-09-27T14:15:33;10.98;;;7.57;;
70675;SDS011;59069;52.242;20.900;2022-09-27T14:17:59;13.10;;;7.80;;
70675;SDS011;59069;52.242;20.900;2022-09-27T14:20:29;11.70;;;7.60;;
70675;SDS011;59069;52.242;20.900;2022-09-27T14:22:57;12.15;;;7.75;;
70675;SDS011;59069;52.242;20.900;2022-09-27T14:25:23;11.70;;;7.63;;
70675;SDS011;59069;52.242;20.900;2022-09-27T14:27:49;12.05;;;8.13;;
70675;SDS011;59069;52.242;20.900;2022-09-27T14:30:19;12.38;;;7.72;;
70675;SDS011;59069;52.242;20.900;2022-09-27T14:32:47;12.50;;;7.93;;
70675;SDS011;59069;52.242;20.900;2022-09-27T14:38:04;14.02;;;7.40;;
70675;SDS011;59069;52.242;20.900;2022-09-27T14:40:34;12.40;;;7.13;;
70675;SDS011;59069;52.242;20.900;2022-09-27T14:43:04;11.80;;;7.50;;
70675;SDS011;59069;52.242;20.900;2022-09-27T14:45:34;11.50;;;7.17;;
70675;SDS011;59069;52.242;20.900;2022-09-27T14:53:50;12.10;;;7.63;;
70675;SDS011;59069;52.242;20.900;2022-09-27T14:56:28;15.60;;;8.30;;
70675;SDS011;59069;52.242;20.900;2022-09-27T14:59:13;12.98;;;7.97;;
70675;SDS011;59069;52.242;20.900;2022-09-27T15:01:47;13.15;;;7.97;;
70675;SDS011;59069;52.242;20.900;2022-09-27T15:04:14;14.57;;;8.02;;
70675;SDS011;59069;52.242;20.900;2022-09-27T15:06:40;24.58;;;11.40;;
70675;SDS011;59069;52.242;20.900;2022-09-27T15:09:09;19.97;;;9.77;;
70675;SDS011;59069;52.242;20.900;2022-09-27T15:11:40;15.80;;;8.75;;
70675;SDS011;59069;52.242;20.900;2022-09-27T15:14:12;16.73;;;8.88;;
70675;SDS011;59069;52.242;20.900;2022-09-27T15:16:40;17.70;;;9.40;;
70675;SDS011;59069;52.242;20.900;2022-09-27T15:21:40;22.13;;;10.93;;
70675;SDS011;59069;52.242;20.900;2022-09-27T15:24:05;17.42;;;9.73;;
70675;SDS011;59069;52.242;20.900;2022-09-27T15:27:13;20.13;;;10.23;;
70675;SDS011;59069;52.242;20.900;2022-09-27T15:29:41;15.43;;;8.90;;
70675;SDS011;59069;52.242;20.900;2022-09-27T15:32:13;12.85;;;8.05;;
70675;SDS011;59069;52.242;20.900;2022-09-27T15:34:41;12.68;;;8.40;;
70675;SDS011;59069;52.242;20.900;2022-09-27T15:37:06;14.67;;;9.23;;
70675;SDS011;59069;52.242;20.900;2022-09-27T15:39:48;13.55;;;8.48;;
70675;SDS011;59069;52.242;20.900;2022-09-27T15:42:13;15.70;;;9.07;;
70675;SDS011;59069;52.242;20.900;2022-09-27T15:44:50;14.00;;;8.70;;
70675;SDS011;59069;52.242;20.900;2022-09-27T15:52:45;15.57;;;9.40;;
70675;SDS011;59069;52.242;20.900;2022-09-27T15:55:15;15.80;;;9.32;;
70675;SDS011;59069;52.242;20.900;2022-09-27T15:57:43;14.57;;;9.45;;
70675;SDS011;59069;52.242;20.900;2022-09-27T16:00:12;15.40;;;9.38;;
70675;SDS011;59069;52.242;20.900;2022-09-27T16:02:40;36.55;;;15.80;;
70675;SDS011;59069;52.242;20.900;2022-09-27T16:05:06;16.63;;;10.43;;
70675;SDS011;59069;52.242;20.900;2022-09-27T16:07:32;15.07;;;9.95;;
70675;SDS011;59069;52.242;20.900;2022-09-27T16:09:57;22.37;;;12.00;;
70675;SDS011;59069;52.242;20.900;2022-09-27T16:12:23;18.37;;;11.90;;
70675;SDS011;59069;52.242;20.900;2022-09-27T16:14:49;15.15;;;9.40;;
70675;SDS011;59069;52.242;20.900;2022-09-27T16:17:14;14.90;;;9.40;;
70675;SDS011;59069;52.242;20.900;2022-09-27T16:19:40;15.30;;;9.68;;
70675;SDS011;59069;52.242;20.900;2022-09-27T16:22:05;16.53;;;9.57;;
70675;SDS011;59069;52.242;20.900;2022-09-27T16:24:31;16.93;;;9.43;;
70675;SDS011;59069;52.242;20.900;2022-09-27T16:26:56;15.98;;;8.88;;
70675;SDS011;59069;52.242;20.900;2022-09-27T16:29:23;15.03;;;9.23;;
70675;SDS011;59069;52.242;20.900;2022-09-27T16:31:48;14.40;;;9.10;;
70675;SDS011;59069;52.242;20.900;2022-09-27T16:34:14;15.07;;;9.93;;
70675;SDS011;59069;52.242;20.900;2022-09-27T16:36:40;15.68;;;9.65;;
70675;SDS011;59069;52.242;20.900;2022-09-27T16:39:06;15.50;;;8.90;;
70675;SDS011;59069;52.242;20.900;2022-09-27T16:41:34;14.63;;;9.20;;
70675;SDS011;59069;52.242;20.900;2022-09-27T16:44:04;15.50;;;8.90;;
70675;SDS011;59069;52.242;20.900;2022-09-27T16:46:31;16.67;;;9.88;;
70675;SDS011;59069;52.242;20.900;2022-09-27T16:48:58;15.90;;;9.98;;
70675;SDS011;59069;52.242;20.900;2022-09-27T16:51:24;15.47;;;9.07;;
70675;SDS011;59069;52.242;20.900;2022-09-27T16:54:07;14.35;;;9.10;;
70675;SDS011;59069;52.242;20.900;2022-09-27T16:56:33;13.13;;;8.20;;
70675;SDS011;59069;52.242;20.900;2022-09-27T16:58:59;13.43;;;8.45;;
70675;SDS011;59069;52.242;20.900;2022-09-27T17:01:28;13.82;;;8.55;;
70675;SDS011;59069;52.242;20.900;2022-09-27T17:03:56;16.13;;;8.88;;
70675;SDS011;59069;52.242;20.900;2022-09-27T17:06:23;13.70;;;8.55;;
70675;SDS011;59069;52.242;20.900;2022-09-27T17:08:52;14.07;;;8.47;;
70675;SDS011;59069;52.242;20.900;2022-09-27T17:11:18;13.88;;;8.43;;
70675;SDS011;59069;52.242;20.900;2022-09-27T17:13:44;14.55;;;8.02;;
70675;SDS011;59069;52.242;20.900;2022-09-27T17:16:13;14.00;;;8.33;;
70675;SDS011;59069;52.242;20.900;2022-09-27T17:18:39;41.40;;;25.92;;
70675;SDS011;59069;52.242;20.900;2022-09-27T17:21:05;117.18;;;70.47;;
70675;SDS011;59069;52.242;20.900;2022-09-27T17:23:33;19.95;;;12.00;;
70675;SDS011;59069;52.242;20.900;2022-09-27T17:26:03;14.27;;;8.37;;
70675;SDS011;59069;52.242;20.900;2022-09-27T17:28:33;14.65;;;8.38;;
70675;SDS011;59069;52.242;20.900;2022-09-27T17:31:01;14.32;;;8.65;;
70675;SDS011;59069;52.242;20.900;2022-09-27T17:33:27;13.98;;;8.45;;
70675;SDS011;59069;52.242;20.900;2022-09-27T17:36:00;13.70;;;8.47;;
70675;SDS011;59069;52.242;20.900;2022-09-27T17:38:27;15.95;;;8.43;;
70675;SDS011;59069;52.242;20.900;2022-09-27T17:41:04;14.07;;;8.75;;
70675;SDS011;59069;52.242;20.900;2022-09-27T17:43:31;13.17;;;8.43;;
70675;SDS011;59069;52.242;20.900;2022-09-27T17:46:03;16.70;;;9.07;;
70675;SDS011;59069;52.242;20.900;2022-09-27T17:48:30;84.28;;;46.38;;
70675;SDS011;59069;52.242;20.900;2022-09-27T17:51:14;19.00;;;11.57;;
70675;SDS011;59069;52.242;20.900;2022-09-27T17:53:39;14.87;;;8.50;;
70675;SDS011;59069;52.242;20.900;2022-09-27T17:56:05;13.90;;;8.40;;
70675;SDS011;59069;52.242;20.900;2022-09-27T17:58:30;16.37;;;9.03;;
70675;SDS011;59069;52.242;20.900;2022-09-27T18:01:03;16.83;;;9.80;;
70675;SDS011;59069;52.242;20.900;2022-09-27T18:03:34;15.90;;;9.70;;
70675;SDS011;59069;52.242;20.900;2022-09-27T18:06:03;16.17;;;9.52;;
70675;SDS011;59069;52.242;20.900;2022-09-27T18:08:30;14.73;;;9.38;;
70675;SDS011;59069;52.242;20.900;2022-09-27T18:10:56;16.30;;;8.93;;
70675;SDS011;59069;52.242;20.900;2022-09-27T18:13:27;17.33;;;9.40;;
70675;SDS011;59069;52.242;20.900;2022-09-27T18:15:56;19.17;;;9.67;;
70675;SDS011;59069;52.242;20.900;2022-09-27T18:18:23;19.70;;;10.15;;
70675;SDS011;59069;52.242;20.900;2022-09-27T18:20:48;29.92;;;11.25;;
70675;SDS011;59069;52.242;20.900;2022-09-27T18:23:14;25.43;;;13.57;;
70675;SDS011;59069;52.242;20.900;2022-09-27T18:25:39;23.23;;;14.20;;
70675;SDS011;59069;52.242;20.900;2022-09-27T18:28:05;61.50;;;32.63;;